createdAt,value
2019-04-28T00:00:23.204Z,0.00
2019-04-28T00:01:23.426Z,0.00
2019-04-28T00:02:23.653Z,0.00
2019-04-28T00:03:23.873Z,0.00
2019-04-28T00:04:24.108Z,0.00
2019-04-28T00:05:24.321Z,0.00
2019-04-28T00:06:24.546Z,0.00
2019-04-28T00:07:24.778Z,0.00
2019-04-28T00:08:24.994Z,0.00
2019-04-28T00:09:25.217Z,0.00
2019-04-28T00:10:25.442Z,0.00
2019-04-28T00:11:25.663Z,0.00
2019-04-28T00:12:25.884Z,0.00
2019-04-28T00:13:26.108Z,0.00
2019-04-28T00:14:26.337Z,0.00
2019-04-28T00:15:26.557Z,0.00
2019-04-28T00:16:26.780Z,0.00
2019-04-28T00:17:27.004Z,0.00
2019-04-28T00:18:27.241Z,0.00
2019-04-28T00:19:27.452Z,0.00
2019-04-28T00:20:27.676Z,0.00
2019-04-28T00:21:27.895Z,0.00
2019-04-28T00:22:28.120Z,0.00
2019-04-28T00:23:28.341Z,0.00
2019-04-28T00:24:28.564Z,0.00
2019-04-28T00:25:28.787Z,0.00
2019-04-28T00:26:30.982Z,0.00
2019-04-28T00:27:29.237Z,0.00
2019-04-28T00:28:31.106Z,0.00
2019-04-28T00:29:38.486Z,0.00
2019-04-28T00:30:31.624Z,0.00
2019-04-28T00:31:31.250Z,0.00
2019-04-28T00:32:30.464Z,0.00
2019-04-28T00:33:31.420Z,0.00
2019-04-28T00:34:31.177Z,0.00
2019-04-28T00:35:31.887Z,0.00
2019-04-28T00:36:31.418Z,0.00
2019-04-28T00:37:32.023Z,0.00
2019-04-28T00:38:31.732Z,0.00
2019-04-28T00:39:31.924Z,0.00
2019-04-28T00:40:32.150Z,0.00
2019-04-28T00:41:32.374Z,0.00
2019-04-28T00:42:32.600Z,0.00
2019-04-28T00:43:32.822Z,0.00
2019-04-28T00:44:33.047Z,0.00
2019-04-28T00:45:33.269Z,0.00
2019-04-28T00:46:33.494Z,0.00
2019-04-28T00:47:33.718Z,0.00
2019-04-28T00:48:33.943Z,0.00
2019-04-28T00:49:34.166Z,0.00
2019-04-28T00:50:34.389Z,0.00
2019-04-28T00:51:34.614Z,0.00
2019-04-28T00:52:34.837Z,0.00
2019-04-28T00:53:35.054Z,0.00
2019-04-28T00:54:35.281Z,0.00
2019-04-28T00:55:35.505Z,0.00
2019-04-28T00:56:35.728Z,0.00
2019-04-28T00:57:35.956Z,0.00
2019-04-28T00:58:36.176Z,0.00
2019-04-28T00:59:36.398Z,0.00
2019-04-28T01:00:36.624Z,0.00
2019-04-28T01:01:36.849Z,0.00
2019-04-28T01:02:37.074Z,0.00
2019-04-28T01:03:37.295Z,0.00
2019-04-28T01:04:37.519Z,0.00
2019-04-28T01:05:37.745Z,0.00
2019-04-28T01:06:37.967Z,0.00
2019-04-28T01:07:38.194Z,0.00
2019-04-28T01:08:38.418Z,0.00
2019-04-28T01:09:38.643Z,0.00
2019-04-28T01:10:40.885Z,0.00
2019-04-28T01:11:39.092Z,0.00
2019-04-28T01:12:41.040Z,0.00
2019-04-28T01:13:41.795Z,0.00
2019-04-28T01:14:40.946Z,0.00
2019-04-28T01:15:39.991Z,0.00
2019-04-28T01:16:40.225Z,0.00
2019-04-28T01:17:40.425Z,0.00
2019-04-28T01:18:40.659Z,0.00
2019-04-28T01:19:40.880Z,0.00
2019-04-28T01:20:41.105Z,0.00
2019-04-28T01:21:41.648Z,0.00
2019-04-28T01:22:41.548Z,0.00
2019-04-28T01:23:41.779Z,0.00
2019-04-28T01:24:42.008Z,0.00
2019-04-28T01:25:42.234Z,0.00
2019-04-28T01:26:42.450Z,0.00
2019-04-28T01:27:42.680Z,0.00
2019-04-28T01:28:42.897Z,0.00
2019-04-28T01:29:43.122Z,0.00
2019-04-28T01:30:43.343Z,0.00
2019-04-28T01:31:43.565Z,0.00
2019-04-28T01:32:43.790Z,0.00
2019-04-28T01:33:44.013Z,0.00
2019-04-28T01:34:44.238Z,0.00
2019-04-28T01:35:44.465Z,0.00
2019-04-28T01:36:44.685Z,0.00
2019-04-28T01:37:44.909Z,0.00
2019-04-28T01:38:45.136Z,0.00
2019-04-28T01:39:45.358Z,0.00
2019-04-28T01:40:45.584Z,0.00
2019-04-28T01:41:45.808Z,0.00
2019-04-28T01:42:46.033Z,0.00
2019-04-28T01:43:46.257Z,0.00
2019-04-28T01:44:46.482Z,0.00
2019-04-28T01:45:46.715Z,0.00
2019-04-28T01:46:46.931Z,0.00
2019-04-28T01:47:47.156Z,0.00
2019-04-28T01:48:47.383Z,0.00
2019-04-28T01:49:47.608Z,0.00
2019-04-28T01:50:47.830Z,0.00
2019-04-28T01:51:48.052Z,0.00
2019-04-28T01:52:49.721Z,0.00
2019-04-28T01:53:50.403Z,0.00
2019-04-28T01:54:50.207Z,0.00
2019-04-28T01:55:49.520Z,0.00
2019-04-28T01:56:50.227Z,0.00
2019-04-28T01:57:49.853Z,0.00
2019-04-28T01:58:49.948Z,0.00
2019-04-28T01:59:50.033Z,0.00
2019-04-28T02:00:50.550Z,0.00
2019-04-28T02:01:50.297Z,0.00
2019-04-28T02:02:50.664Z,0.00
2019-04-28T02:03:50.747Z,0.00
2019-04-28T02:04:50.969Z,0.00
2019-04-28T02:05:51.202Z,0.00
2019-04-28T02:06:51.415Z,0.00
2019-04-28T02:07:51.643Z,0.00
2019-04-28T02:08:51.858Z,0.00
2019-04-28T02:09:52.081Z,0.00
2019-04-28T02:10:52.298Z,0.00
2019-04-28T02:11:52.535Z,0.00
2019-04-28T02:12:52.759Z,0.00
2019-04-28T02:13:52.991Z,0.00
2019-04-28T02:14:53.199Z,0.00
2019-04-28T02:15:53.427Z,0.00
2019-04-28T02:16:53.659Z,0.00
2019-04-28T02:17:53.876Z,0.00
2019-04-28T02:18:54.101Z,0.00
2019-04-28T02:19:54.329Z,0.00
2019-04-28T02:20:54.557Z,0.00
2019-04-28T02:21:54.774Z,0.00
2019-04-28T02:22:54.998Z,0.00
2019-04-28T02:23:55.223Z,0.00
2019-04-28T02:24:55.446Z,0.00
2019-04-28T02:25:55.673Z,0.00
2019-04-28T02:26:55.901Z,0.00
2019-04-28T02:27:57.178Z,0.00
2019-04-28T02:28:56.341Z,0.00
2019-04-28T02:29:56.567Z,0.00
2019-04-28T02:30:56.795Z,0.00
2019-04-28T02:31:57.014Z,0.00
2019-04-28T02:32:57.240Z,0.00
2019-04-28T02:33:57.464Z,0.00
2019-04-28T02:35:00.814Z,0.00
2019-04-28T02:35:57.913Z,0.00
2019-04-28T02:37:01.016Z,0.00
2019-04-28T02:38:00.040Z,0.00
2019-04-28T02:39:00.653Z,0.00
2019-04-28T02:40:02.941Z,0.00
2019-04-28T02:41:00.155Z,0.00
2019-04-28T02:42:01.372Z,0.00
2019-04-28T02:43:01.306Z,0.00
2019-04-28T02:44:00.919Z,0.00
2019-04-28T02:45:00.556Z,0.00
2019-04-28T02:46:00.783Z,0.00
2019-04-28T02:47:01.013Z,0.00
2019-04-28T02:48:01.086Z,0.00
2019-04-28T02:49:00.993Z,0.00
2019-04-28T02:50:01.110Z,0.00
2019-04-28T02:51:01.374Z,0.00
2019-04-28T02:52:02.974Z,0.00
2019-04-28T02:53:02.086Z,0.00
2019-04-28T02:54:01.947Z,0.00
2019-04-28T02:55:03.061Z,0.00
2019-04-28T02:56:02.413Z,0.00
2019-04-28T02:57:02.618Z,0.00
2019-04-28T02:58:02.865Z,0.00
2019-04-28T02:59:03.059Z,0.00
2019-04-28T03:00:03.293Z,0.00
2019-04-28T03:01:15.264Z,0.00
2019-04-28T03:02:03.734Z,0.00
2019-04-28T03:03:03.957Z,0.00
2019-04-28T03:04:04.182Z,0.00
2019-04-28T03:05:04.408Z,0.00
2019-04-28T03:06:04.632Z,0.00
2019-04-28T03:07:04.868Z,0.00
2019-04-28T03:08:05.081Z,0.00
2019-04-28T03:09:05.303Z,0.00
2019-04-28T03:10:05.537Z,0.00
2019-04-28T03:11:05.747Z,0.00
2019-04-28T03:12:05.972Z,0.00
2019-04-28T03:13:06.194Z,0.00
2019-04-28T03:14:06.419Z,0.00
2019-04-28T03:15:06.639Z,0.00
2019-04-28T03:16:06.863Z,0.00
2019-04-28T03:17:07.090Z,0.00
2019-04-28T03:18:07.313Z,0.00
2019-04-28T03:19:07.534Z,0.00
2019-04-28T03:20:10.765Z,0.00
2019-04-28T03:21:07.985Z,0.00
2019-04-28T03:22:11.244Z,0.00
2019-04-28T03:23:09.901Z,0.00
2019-04-28T03:24:10.996Z,0.00
2019-04-28T03:25:10.918Z,0.00
2019-04-28T03:26:11.197Z,0.00
2019-04-28T03:27:10.808Z,0.00
2019-04-28T03:28:12.002Z,0.00
2019-04-28T03:29:10.891Z,0.00
2019-04-28T03:30:13.219Z,0.00
2019-04-28T03:31:40.609Z,0.00
2019-04-28T03:32:31.036Z,0.00
2019-04-28T03:33:18.160Z,0.00
2019-04-28T03:34:12.985Z,4.00
2019-04-28T03:35:12.962Z,4.00
2019-04-28T03:36:15.420Z,0.00
2019-04-28T03:37:11.574Z,4.00
2019-04-28T03:38:11.810Z,4.00
2019-04-28T03:39:12.024Z,4.00
2019-04-28T03:40:12.247Z,8.00
2019-04-28T03:41:12.472Z,8.00
2019-04-28T03:42:12.695Z,8.00
2019-04-28T03:43:14.190Z,8.00
2019-04-28T03:44:13.152Z,12.00
2019-04-28T03:45:13.370Z,16.00
2019-04-28T03:46:13.598Z,16.00
2019-04-28T03:47:13.822Z,16.00
2019-04-28T03:48:14.041Z,24.00
2019-04-28T03:49:14.270Z,24.00
2019-04-28T03:50:14.489Z,32.00
2019-04-28T03:51:14.714Z,36.00
2019-04-28T03:52:14.937Z,36.00
2019-04-28T03:53:15.160Z,44.00
2019-04-28T03:54:15.386Z,48.00
2019-04-28T03:55:15.613Z,52.00
2019-04-28T03:56:15.830Z,60.00
2019-04-28T03:57:16.053Z,68.00
2019-04-28T03:58:16.282Z,80.00
2019-04-28T03:59:16.507Z,88.00
2019-04-28T04:00:16.730Z,96.00
2019-04-28T04:01:16.985Z,104.00
2019-04-28T04:02:17.181Z,116.00
2019-04-28T04:03:17.402Z,120.00
2019-04-28T04:04:17.629Z,132.00
2019-04-28T04:05:20.612Z,140.00
2019-04-28T04:06:18.079Z,152.00
2019-04-28T04:07:21.225Z,160.00
2019-04-28T04:08:20.859Z,172.00
2019-04-28T04:09:21.582Z,184.00
2019-04-28T04:10:20.678Z,196.00
2019-04-28T04:11:20.217Z,208.00
2019-04-28T04:12:21.161Z,220.00
2019-04-28T04:13:20.160Z,228.00
2019-04-28T04:14:21.105Z,240.00
2019-04-28T04:15:21.312Z,252.00
2019-04-28T04:16:20.842Z,264.00
2019-04-28T04:17:21.215Z,284.00
2019-04-28T04:18:21.197Z,304.00
2019-04-28T04:19:20.991Z,324.00
2019-04-28T04:20:23.790Z,344.00
2019-04-28T04:21:21.685Z,360.00
2019-04-28T04:22:21.662Z,380.00
2019-04-28T04:23:23.339Z,400.00
2019-04-28T04:24:22.119Z,424.00
2019-04-28T04:25:22.335Z,452.00
2019-04-28T04:26:22.553Z,484.00
2019-04-28T04:27:22.779Z,512.00
2019-04-28T04:28:23.000Z,548.00
2019-04-28T04:29:23.226Z,588.00
2019-04-28T04:30:23.448Z,632.00
2019-04-28T04:31:23.676Z,680.00
2019-04-28T04:32:26.949Z,732.00
2019-04-28T04:33:24.124Z,788.00
2019-04-28T04:34:24.346Z,848.00
2019-04-28T04:35:24.571Z,904.00
2019-04-28T04:36:24.793Z,956.00
2019-04-28T04:37:25.018Z,1008.00
2019-04-28T04:38:25.249Z,1064.00
2019-04-28T04:39:25.461Z,1112.00
2019-04-28T04:40:25.687Z,1148.00
2019-04-28T04:41:25.912Z,1208.00
2019-04-28T04:42:26.129Z,1284.00
2019-04-28T04:43:26.354Z,1344.00
2019-04-28T04:44:26.579Z,1408.00
2019-04-28T04:45:26.804Z,1464.00
2019-04-28T04:46:27.026Z,1508.00
2019-04-28T04:47:27.256Z,1532.00
2019-04-28T04:48:27.480Z,1560.00
2019-04-28T04:49:27.701Z,1588.00
2019-04-28T04:50:27.925Z,1652.00
2019-04-28T04:51:30.097Z,1744.00
2019-04-28T04:52:30.379Z,1828.00
2019-04-28T04:53:30.776Z,1824.00
2019-04-28T04:54:32.104Z,1832.00
2019-04-28T04:55:30.801Z,1916.00
2019-04-28T04:56:30.153Z,2012.00
2019-04-28T04:57:32.350Z,2152.00
2019-04-28T04:58:30.470Z,2220.00
2019-04-28T04:59:30.219Z,2284.00
2019-04-28T05:00:30.635Z,2384.00
2019-04-28T05:01:30.484Z,2564.00
2019-04-28T05:02:33.032Z,2672.00
2019-04-28T05:03:31.399Z,2968.00
2019-04-28T05:04:31.067Z,3396.00
2019-04-28T05:05:31.292Z,3852.00
2019-04-28T05:06:31.518Z,4244.00
2019-04-28T05:07:31.743Z,4792.00
2019-04-28T05:08:31.966Z,5600.00
2019-04-28T05:09:32.190Z,5536.00
2019-04-28T05:10:32.419Z,5068.00
2019-04-28T05:11:32.642Z,4840.00
2019-04-28T05:12:32.859Z,4944.00
2019-04-28T05:13:33.082Z,5160.00
2019-04-28T05:14:33.307Z,5276.00
2019-04-28T05:15:33.536Z,5584.00
2019-04-28T05:16:33.756Z,6520.00
2019-04-28T05:17:33.981Z,8064.00
2019-04-28T05:18:34.205Z,11540.00
2019-04-28T05:19:34.431Z,12120.00
2019-04-28T05:20:34.655Z,10640.00
2019-04-28T05:21:34.880Z,10448.00
2019-04-28T05:22:35.105Z,11452.00
2019-04-28T05:23:35.330Z,14080.00
2019-04-28T05:24:35.555Z,12376.00
2019-04-28T05:25:35.778Z,8600.00
2019-04-28T05:26:36.006Z,8400.00
2019-04-28T05:27:36.232Z,8260.00
2019-04-28T05:28:40.737Z,11576.00
2019-04-28T05:29:36.675Z,8072.00
2019-04-28T05:30:39.706Z,7572.00
2019-04-28T05:31:37.125Z,7240.00
2019-04-28T05:32:44.791Z,7088.00
2019-04-28T05:33:39.612Z,7080.00
2019-04-28T05:34:39.804Z,7152.00
2019-04-28T05:35:39.611Z,7388.00
2019-04-28T05:36:42.486Z,7892.00
2019-04-28T05:37:40.323Z,12488.00
2019-04-28T05:38:40.477Z,20128.00
2019-04-28T05:39:40.515Z,20544.00
2019-04-28T05:40:39.924Z,20448.00
2019-04-28T05:41:39.971Z,19680.00
2019-04-28T05:42:39.605Z,16160.00
2019-04-28T05:43:40.478Z,15392.00
2019-04-28T05:44:40.815Z,13348.00
2019-04-28T05:45:40.282Z,15264.00
2019-04-28T05:46:40.509Z,9324.00
2019-04-28T05:47:40.907Z,8784.00
2019-04-28T05:48:40.980Z,8120.00
2019-04-28T05:49:41.191Z,7984.00
2019-04-28T05:50:41.417Z,7696.00
2019-04-28T05:51:41.644Z,7684.00
2019-04-28T05:52:41.869Z,7700.00
2019-04-28T05:53:42.098Z,7788.00
2019-04-28T05:54:42.325Z,7876.00
2019-04-28T05:55:42.575Z,7748.00
2019-04-28T05:56:42.786Z,7596.00
2019-04-28T05:57:43.010Z,7624.00
2019-04-28T05:58:43.238Z,7556.00
2019-04-28T05:59:43.466Z,7524.00
2019-04-28T06:00:43.698Z,7452.00
2019-04-28T06:01:43.925Z,7336.00
2019-04-28T06:02:55.593Z,7232.00
2019-04-28T06:03:44.379Z,7156.00
2019-04-28T06:04:44.606Z,7192.00
2019-04-28T06:05:44.830Z,7268.00
2019-04-28T06:06:45.057Z,7364.00
2019-04-28T06:07:45.285Z,7460.00
2019-04-28T06:08:45.511Z,7552.00
2019-04-28T06:09:45.737Z,7668.00
2019-04-28T06:10:45.969Z,7784.00
2019-04-28T06:11:46.192Z,7888.00
2019-04-28T06:12:46.418Z,8052.00
2019-04-28T06:13:46.647Z,8256.00
2019-04-28T06:14:46.870Z,8396.00
2019-04-28T06:15:47.095Z,8516.00
2019-04-28T06:16:47.322Z,8660.00
2019-04-28T06:17:47.549Z,8816.00
2019-04-28T06:18:49.990Z,8924.00
2019-04-28T06:19:48.004Z,8944.00
2019-04-28T06:20:49.763Z,9020.00
2019-04-28T06:21:48.459Z,9204.00
2019-04-28T06:22:48.684Z,9536.00
2019-04-28T06:23:48.912Z,10020.00
2019-04-28T06:24:49.135Z,10548.00
2019-04-28T06:25:49.363Z,10840.00
2019-04-28T06:26:49.590Z,11052.00
2019-04-28T06:27:49.817Z,11244.00
2019-04-28T06:28:50.044Z,11388.00
2019-04-28T06:29:50.270Z,11764.00
2019-04-28T06:30:50.496Z,12428.00
2019-04-28T06:31:50.721Z,13352.00
2019-04-28T06:32:50.950Z,13184.00
2019-04-28T06:33:51.177Z,12948.00
2019-04-28T06:34:51.404Z,12688.00
2019-04-28T06:35:51.630Z,12524.00
2019-04-28T06:36:51.855Z,12236.00
2019-04-28T06:37:52.084Z,13756.00
2019-04-28T06:38:52.309Z,12952.00
2019-04-28T06:39:52.536Z,11612.00
2019-04-28T06:40:52.761Z,10788.00
2019-04-28T06:41:52.989Z,9948.00
2019-04-28T06:42:53.217Z,10028.00
2019-04-28T06:43:53.445Z,9220.00
2019-04-28T06:44:53.669Z,7900.00
2019-04-28T06:45:53.898Z,6564.00
2019-04-28T06:46:54.163Z,5828.00
2019-04-28T06:47:54.344Z,5456.00
2019-04-28T06:48:54.570Z,5248.00
2019-04-28T06:49:54.797Z,5040.00
2019-04-28T06:50:55.022Z,5016.00
2019-04-28T06:51:55.250Z,5200.00
2019-04-28T06:52:55.479Z,5268.00
2019-04-28T06:53:55.702Z,5160.00
2019-04-28T06:54:55.929Z,5156.00
2019-04-28T06:55:56.155Z,5580.00
2019-04-28T06:56:56.383Z,5860.00
2019-04-28T06:57:56.609Z,5848.00
2019-04-28T06:58:59.291Z,5252.00
2019-04-28T06:59:57.060Z,4624.00
2019-04-28T07:00:57.287Z,4344.00
2019-04-28T07:01:57.513Z,4248.00
2019-04-28T07:02:57.743Z,3980.00
2019-04-28T07:03:57.966Z,3896.00
2019-04-28T07:05:02.113Z,3968.00
2019-04-28T07:05:58.417Z,4124.00
2019-04-28T07:06:58.644Z,4232.00
2019-04-28T07:07:58.867Z,4360.00
2019-04-28T07:08:59.098Z,4596.00
2019-04-28T07:09:59.323Z,4780.00
2019-04-28T07:10:59.548Z,4756.00
2019-04-28T07:11:59.776Z,4932.00
2019-04-28T07:13:00.001Z,5376.00
2019-04-28T07:14:00.229Z,5300.00
2019-04-28T07:15:00.458Z,4648.00
2019-04-28T07:16:00.681Z,4004.00
2019-04-28T07:17:00.906Z,3752.00
2019-04-28T07:18:01.134Z,3736.00
2019-04-28T07:19:01.366Z,3820.00
2019-04-28T07:20:01.585Z,3840.00
2019-04-28T07:21:01.812Z,3952.00
2019-04-28T07:22:02.036Z,4112.00
2019-04-28T07:23:02.265Z,4164.00
2019-04-28T07:24:02.484Z,4104.00
2019-04-28T07:25:02.710Z,3888.00
2019-04-28T07:26:02.937Z,3572.00
2019-04-28T07:27:03.160Z,3268.00
2019-04-28T07:28:03.389Z,3072.00
2019-04-28T07:29:03.614Z,3072.00
2019-04-28T07:30:03.838Z,3244.00
2019-04-28T07:31:04.065Z,3512.00
2019-04-28T07:32:04.290Z,3792.00
2019-04-28T07:33:04.515Z,4064.00
2019-04-28T07:34:04.741Z,4040.00
2019-04-28T07:35:04.968Z,3940.00
2019-04-28T07:36:05.189Z,3956.00
2019-04-28T07:37:05.417Z,4036.00
2019-04-28T07:38:05.641Z,4116.00
2019-04-28T07:39:05.870Z,4148.00
2019-04-28T07:40:06.252Z,4240.00
2019-04-28T07:41:06.318Z,4524.00
2019-04-28T07:42:06.545Z,5004.00
2019-04-28T07:43:06.773Z,5232.00
2019-04-28T07:44:07.003Z,5148.00
2019-04-28T07:45:07.226Z,5128.00
2019-04-28T07:46:07.452Z,5312.00
2019-04-28T07:47:07.677Z,5680.00
2019-04-28T07:48:07.899Z,6176.00
2019-04-28T07:49:08.124Z,6836.00
2019-04-28T07:50:08.350Z,7736.00
2019-04-28T07:51:08.578Z,8684.00
2019-04-28T07:52:08.804Z,9560.00
2019-04-28T07:53:09.036Z,10344.00
2019-04-28T07:54:09.261Z,10992.00
2019-04-28T07:55:09.486Z,11528.00
2019-04-28T07:56:09.708Z,11716.00
2019-04-28T07:57:09.934Z,11668.00
2019-04-28T07:58:10.162Z,11196.00
2019-04-28T07:59:10.389Z,10884.00
2019-04-28T08:00:10.616Z,10744.00
2019-04-28T08:01:10.844Z,11260.00
2019-04-28T08:02:11.066Z,10304.00
2019-04-28T08:03:11.292Z,10156.00
2019-04-28T08:04:11.522Z,10556.00
2019-04-28T08:05:11.747Z,11056.00
2019-04-28T08:06:11.979Z,10612.00
2019-04-28T08:07:12.199Z,10564.00
2019-04-28T08:08:12.424Z,10264.00
2019-04-28T08:09:12.651Z,9704.00
2019-04-28T08:10:12.871Z,9292.00
2019-04-28T08:11:13.096Z,9252.00
2019-04-28T08:12:13.325Z,10084.00
2019-04-28T08:13:13.550Z,9724.00
2019-04-28T08:14:13.776Z,11392.00
2019-04-28T08:15:14.002Z,9772.00
2019-04-28T08:16:14.228Z,9128.00
2019-04-28T08:17:14.456Z,8840.00
2019-04-28T08:18:14.683Z,8648.00
2019-04-28T08:19:14.908Z,8748.00
2019-04-28T08:20:15.138Z,8992.00
2019-04-28T08:21:15.360Z,9276.00
2019-04-28T08:22:15.593Z,9580.00
2019-04-28T08:23:15.818Z,9816.00
2019-04-28T08:24:16.043Z,10008.00
2019-04-28T08:25:16.274Z,9944.00
2019-04-28T08:26:16.499Z,9984.00
2019-04-28T08:27:16.725Z,9980.00
2019-04-28T08:28:16.954Z,10268.00
2019-04-28T08:29:17.181Z,10468.00
2019-04-28T08:30:17.409Z,10764.00
2019-04-28T08:31:17.637Z,11064.00
2019-04-28T08:32:17.865Z,11204.00
2019-04-28T08:33:18.095Z,11192.00
2019-04-28T08:34:18.324Z,13688.00
2019-04-28T08:35:18.553Z,14276.00
2019-04-28T08:36:18.781Z,12200.00
2019-04-28T08:37:19.007Z,12060.00
2019-04-28T08:38:19.234Z,12148.00
2019-04-28T08:39:19.463Z,12740.00
2019-04-28T08:40:19.690Z,11792.00
2019-04-28T08:41:19.920Z,11956.00
2019-04-28T08:42:20.153Z,11984.00
2019-04-28T08:43:20.385Z,12208.00
2019-04-28T08:44:20.603Z,12256.00
2019-04-28T08:45:20.831Z,12244.00
2019-04-28T08:46:21.060Z,12324.00
2019-04-28T08:47:21.289Z,11880.00
2019-04-28T08:48:21.513Z,11480.00
2019-04-28T08:49:21.739Z,10960.00
2019-04-28T08:50:21.971Z,10420.00
2019-04-28T08:51:22.195Z,9652.00
2019-04-28T08:52:22.424Z,9188.00
2019-04-28T08:53:22.652Z,9004.00
2019-04-28T08:54:22.882Z,8992.00
2019-04-28T08:55:23.108Z,9088.00
2019-04-28T08:56:23.335Z,9304.00
2019-04-28T08:57:23.575Z,9284.00
2019-04-28T08:58:23.786Z,9292.00
2019-04-28T08:59:24.016Z,9408.00
2019-04-28T09:00:24.244Z,9532.00
2019-04-28T09:01:24.472Z,9620.00
2019-04-28T09:02:24.698Z,9760.00
2019-04-28T09:03:24.926Z,10108.00
2019-04-28T09:04:25.158Z,10560.00
2019-04-28T09:05:25.383Z,10596.00
2019-04-28T09:06:25.612Z,10888.00
2019-04-28T09:07:25.867Z,10836.00
2019-04-28T09:08:26.092Z,10720.00
2019-04-28T09:09:26.321Z,10732.00
2019-04-28T09:10:26.549Z,10652.00
2019-04-28T09:11:26.780Z,10588.00
2019-04-28T09:12:27.009Z,12988.00
2019-04-28T09:13:27.240Z,10812.00
2019-04-28T09:14:27.464Z,12644.00
2019-04-28T09:15:27.698Z,11952.00
2019-04-28T09:16:27.942Z,12980.00
2019-04-28T09:17:28.159Z,11640.00
2019-04-28T09:18:28.385Z,12152.00
2019-04-28T09:19:28.626Z,14336.00
2019-04-28T09:20:28.836Z,12196.00
2019-04-28T09:21:29.065Z,13076.00
2019-04-28T09:22:29.305Z,14552.00
2019-04-28T09:23:29.539Z,14060.00
2019-04-28T09:24:29.767Z,13484.00
2019-04-28T09:25:30.007Z,14012.00
2019-04-28T09:26:30.234Z,12964.00
2019-04-28T09:27:30.449Z,12616.00
2019-04-28T09:28:30.680Z,12920.00
2019-04-28T09:29:30.902Z,14028.00
2019-04-28T09:30:31.130Z,13276.00
2019-04-28T09:31:31.359Z,14688.00
2019-04-28T09:32:31.590Z,12992.00
2019-04-28T09:33:31.819Z,12152.00
2019-04-28T09:34:32.048Z,12000.00
2019-04-28T09:35:32.274Z,11744.00
2019-04-28T09:36:32.501Z,11380.00
2019-04-28T09:37:32.732Z,10800.00
2019-04-28T09:38:32.963Z,10264.00
2019-04-28T09:39:33.203Z,9904.00
2019-04-28T09:40:33.431Z,9876.00
2019-04-28T09:41:33.658Z,9852.00
2019-04-28T09:42:33.885Z,9868.00
2019-04-28T09:43:34.113Z,9928.00
2019-04-28T09:44:34.341Z,9836.00
2019-04-28T09:45:34.569Z,9612.00
2019-04-28T09:46:34.796Z,9480.00
2019-04-28T09:47:35.060Z,9736.00
2019-04-28T09:48:35.256Z,10216.00
2019-04-28T09:49:35.466Z,10584.00
2019-04-28T09:50:35.696Z,10840.00
2019-04-28T09:51:35.926Z,11136.00
2019-04-28T09:52:36.147Z,11372.00
2019-04-28T09:53:36.384Z,11624.00
2019-04-28T09:54:36.609Z,11876.00
2019-04-28T09:55:36.841Z,12092.00
2019-04-28T09:56:37.067Z,12264.00
2019-04-28T09:57:37.296Z,12336.00
2019-04-28T09:58:37.527Z,12340.00
2019-04-28T09:59:37.756Z,12280.00
2019-04-28T10:00:37.980Z,12128.00
2019-04-28T10:01:38.209Z,11944.00
2019-04-28T10:02:38.438Z,11728.00
2019-04-28T10:03:38.668Z,11592.00
2019-04-28T10:04:41.615Z,11536.00
2019-04-28T10:05:39.121Z,11528.00
2019-04-28T10:06:39.349Z,11524.00
2019-04-28T10:07:39.581Z,11572.00
2019-04-28T10:08:39.813Z,11656.00
2019-04-28T10:09:40.035Z,11700.00
2019-04-28T10:10:40.268Z,11648.00
2019-04-28T10:11:40.493Z,11608.00
2019-04-28T10:12:40.726Z,11584.00
2019-04-28T10:13:40.954Z,11600.00
2019-04-28T10:14:41.180Z,11688.00
2019-04-28T10:15:41.412Z,11728.00
2019-04-28T10:16:41.636Z,11732.00
2019-04-28T10:17:41.883Z,11608.00
2019-04-28T10:18:42.107Z,11448.00
2019-04-28T10:19:42.334Z,11428.00
2019-04-28T10:20:42.563Z,11648.00
2019-04-28T10:21:42.783Z,11792.00
2019-04-28T10:22:43.058Z,11684.00
2019-04-28T10:23:43.239Z,11588.00
2019-04-28T10:24:43.471Z,11472.00
2019-04-28T10:25:43.686Z,11340.00
2019-04-28T10:26:43.922Z,11304.00
2019-04-28T10:27:44.154Z,11316.00
2019-04-28T10:28:44.386Z,11320.00
2019-04-28T10:29:44.614Z,11428.00
2019-04-28T10:30:44.845Z,11528.00
2019-04-28T10:31:45.081Z,11560.00
2019-04-28T10:32:45.309Z,11480.00
2019-04-28T10:33:45.535Z,11392.00
2019-04-28T10:34:54.693Z,11340.00
2019-04-28T10:35:45.993Z,11212.00
2019-04-28T10:36:46.217Z,11236.00
2019-04-28T10:37:46.447Z,11428.00
2019-04-28T10:38:46.676Z,11608.00
2019-04-28T10:39:46.906Z,11652.00
2019-04-28T10:40:47.136Z,11672.00
2019-04-28T10:41:47.365Z,11672.00
2019-04-28T10:42:47.593Z,11680.00
2019-04-28T10:43:47.823Z,11660.00
2019-04-28T10:44:48.077Z,11568.00
2019-04-28T10:45:48.308Z,11544.00
2019-04-28T10:46:48.529Z,11604.00
2019-04-28T10:47:48.755Z,11588.00
2019-04-28T10:48:48.984Z,11416.00
2019-04-28T10:49:49.248Z,11212.00
2019-04-28T10:50:49.406Z,11048.00
2019-04-28T10:51:59.238Z,10812.00
2019-04-28T10:52:49.864Z,10476.00
2019-04-28T10:53:50.093Z,10144.00
2019-04-28T10:54:50.320Z,9772.00
2019-04-28T10:55:50.548Z,9404.00
2019-04-28T10:56:50.784Z,9156.00
2019-04-28T10:57:51.011Z,9036.00
2019-04-28T10:58:51.248Z,9012.00
2019-04-28T10:59:51.475Z,9112.00
2019-04-28T11:00:51.707Z,9292.00
2019-04-28T11:01:51.936Z,9492.00
2019-04-28T11:02:52.162Z,9704.00
2019-04-28T11:03:52.392Z,9912.00
2019-04-28T11:04:52.621Z,10044.00
2019-04-28T11:05:52.850Z,10056.00
2019-04-28T11:06:53.079Z,9984.00
2019-04-28T11:07:53.308Z,9764.00
2019-04-28T11:08:53.534Z,9524.00
2019-04-28T11:09:53.765Z,9252.00
2019-04-28T11:10:53.999Z,8976.00
2019-04-28T11:11:54.202Z,8756.00
2019-04-28T11:12:54.435Z,8604.00
2019-04-28T11:13:54.664Z,8504.00
2019-04-28T11:14:54.889Z,8468.00
2019-04-28T11:15:55.118Z,8528.00
2019-04-28T11:16:55.348Z,8632.00
2019-04-28T11:17:55.575Z,8780.00
2019-04-28T11:18:55.804Z,8904.00
2019-04-28T11:19:56.041Z,8904.00
2019-04-28T11:20:56.288Z,8792.00
2019-04-28T11:21:56.513Z,8616.00
2019-04-28T11:22:56.742Z,8432.00
2019-04-28T11:23:56.969Z,8312.00
2019-04-28T11:24:57.196Z,8180.00
2019-04-28T11:25:57.425Z,8044.00
2019-04-28T11:26:57.655Z,7736.00
2019-04-28T11:27:57.887Z,7280.00
2019-04-28T11:28:58.111Z,6772.00
2019-04-28T11:29:58.387Z,6380.00
2019-04-28T11:30:58.564Z,6124.00
2019-04-28T11:31:58.795Z,5964.00
2019-04-28T11:32:59.028Z,5944.00
2019-04-28T11:33:59.980Z,6020.00
2019-04-28T11:34:59.481Z,6160.00
2019-04-28T11:35:59.707Z,6384.00
2019-04-28T11:36:59.948Z,6584.00
2019-04-28T11:38:00.168Z,6668.00
2019-04-28T11:39:00.386Z,6688.00
2019-04-28T11:40:00.605Z,6696.00
2019-04-28T11:41:00.830Z,6776.00
2019-04-28T11:42:01.057Z,6940.00
2019-04-28T11:43:01.289Z,7156.00
2019-04-28T11:44:01.510Z,7404.00
2019-04-28T11:45:01.746Z,7512.00
2019-04-28T11:46:01.973Z,7576.00
2019-04-28T11:47:02.203Z,9412.00
2019-04-28T11:48:02.421Z,9468.00
2019-04-28T11:49:02.657Z,9488.00
2019-04-28T11:50:02.886Z,9440.00
2019-04-28T11:51:03.112Z,7280.00
2019-04-28T11:52:03.343Z,7388.00
2019-04-28T11:53:03.551Z,7680.00
2019-04-28T11:54:03.794Z,8088.00
2019-04-28T11:55:04.042Z,8464.00
2019-04-28T11:56:04.276Z,8620.00
2019-04-28T11:57:04.504Z,8148.00
2019-04-28T11:58:04.739Z,7796.00
2019-04-28T11:59:04.970Z,7340.00
2019-04-28T12:00:05.193Z,6776.00
2019-04-28T12:01:05.423Z,6368.00
2019-04-28T12:02:05.653Z,6108.00
2019-04-28T12:03:05.880Z,5956.00
2019-04-28T12:04:06.109Z,5876.00
2019-04-28T12:05:06.342Z,6044.00
2019-04-28T12:06:06.578Z,5620.00
2019-04-28T12:07:06.828Z,5668.00
2019-04-28T12:08:07.075Z,7312.00
2019-04-28T12:09:07.306Z,7976.00
2019-04-28T12:10:07.533Z,7928.00
2019-04-28T12:11:07.774Z,7900.00
2019-04-28T12:12:08.690Z,7800.00
2019-04-28T12:13:08.211Z,8532.00
2019-04-28T12:14:08.435Z,8588.00
2019-04-28T12:15:08.712Z,7800.00
2019-04-28T12:16:08.944Z,7480.00
2019-04-28T12:17:09.175Z,8692.00
2019-04-28T12:18:09.409Z,9192.00
2019-04-28T12:19:09.637Z,7240.00
2019-04-28T12:20:09.870Z,7240.00
2019-04-28T12:21:10.097Z,8916.00
2019-04-28T12:22:10.326Z,7480.00
2019-04-28T12:23:10.592Z,7320.00
2019-04-28T12:24:10.895Z,7328.00
2019-04-28T12:25:11.004Z,7536.00